Airfield :
LOGIN :

Register | Disclaimer

   EN    FR    IT 

 










Legend :    VFR   Marginal VFR   IFR   Intensive IFR   Very Intensive IFR
Visi :
Ceiling :
>= 8 km
>= 3000ft
5 to 8 km
1000 to 3000 ft
1500m to 5 km
500 to 1000 ft
800 to 1500m
200 to 500 ft
< 800m
< 200 ft
Symbols :   Thunderstorms  Fog  Heavy snow  Heavy precipitations  Wind > 20 kt
SIGMETs :     Misc.  Thunderstorms  Icing  Turbulence  Mountain Waves  Volcanic Ashes






- Airport Elevation : 171 ft
- IATA code : EGC


LFBE - Bergerac

CURRENT METAR :
  • 300400Z AUTO 07002KT 0600 0550 R27/0650N FG VV/// 07/07 Q1017 NOSIG

EXPIRED METARs :
  • 300330Z AUTO 07003KT 1000 0700 R27/1200D BCFG VV/// 07/07 Q1017 TEMPO 0400 FG
  • 300300Z AUTO 00000KT 0800 R27/0900U FG VV/// 07/07 Q1017 TEMPO 0400 FG
  • 300230Z AUTO 00000KT 0450 0400 R27/0600U FG VV/// 08/08 Q1017 NOSIG
  • 300200Z AUTO 11001KT 0650 0600 R27/0650D FG VV/// 08/08 Q1018 TEMPO 0800 FG
  • 300130Z AUTO 08002KT 0700 R27/1000U FG VV/// 08/08 Q1018 TEMPO 0800 FG
  • 300100Z AUTO 12001KT 0500 R27/0500D FG VV/// 08/08 Q1018 TEMPO 0800 FG

TAF AMD TAF LFBE
Valid from the 30 at 01:00 until the 01 at 00:00 UTC


300149Z 3001/3024 VRB03KT 2000 BR NSC
TEMPO 3001/3006 0400 FG VV///
BECMG 3006/3008 CAVOK



MET'MAP, your aeronautical weather chart ! - Copyright ORBIFLY December 2007 - Disclaimer

ORBIFLY MET'MAP TEAM :

Programming & Development : Alexandra Zaïnal
Concept & original design : Baudouin d'Aumeries
Assistance for programming : Marc-Olivier Méhu
Technical & hardware support : Manuel Goepfert

Contact : metmap@orbifly.com




SOURCES & CREDITS :

   NOAA